createdAt,value
2023-05-02T00:01:55.837Z,73.86
2023-05-02T00:04:23.454Z,74.33
2023-05-02T00:06:55.275Z,75.28
2023-05-02T00:09:22.440Z,77.18
2023-05-02T00:11:52.508Z,75.72
2023-05-02T00:14:19.540Z,76.64
2023-05-02T00:16:46.912Z,75.98
2023-05-02T00:19:13.918Z,76.42
2023-05-02T00:21:49.409Z,75.96
2023-05-02T00:24:18.307Z,75.99
2023-05-02T00:26:45.146Z,76.40
2023-05-02T00:29:12.123Z,74.54
2023-05-02T00:31:41.384Z,75.19
2023-05-02T00:34:08.726Z,76.11
2023-05-02T00:36:35.760Z,76.25
2023-05-02T00:39:03.023Z,76.42
2023-05-02T00:41:29.908Z,76.46
2023-05-02T00:43:57.134Z,77.75
2023-05-02T00:46:24.051Z,77.51
2023-05-02T00:48:51.332Z,77.85
2023-05-02T00:51:18.641Z,79.19
2023-05-02T00:53:45.932Z,80.54
2023-05-02T00:56:12.885Z,79.05
2023-05-02T00:58:41.432Z,80.05
2023-05-02T01:01:14.126Z,79.91
2023-05-02T01:04:26.957Z,80.19
2023-05-02T01:07:30.140Z,81.11
2023-05-02T01:10:10.283Z,82.08
2023-05-02T01:12:43.301Z,81.14
2023-05-02T01:15:18.462Z,80.96
2023-05-02T01:17:47.639Z,80.59
2023-05-02T01:20:19.865Z,82.16
2023-05-02T01:22:48.582Z,81.82
2023-05-02T01:25:39.487Z,81.45
2023-05-02T01:28:22.317Z,81.25
2023-05-02T01:30:51.097Z,80.79
2023-05-02T01:33:19.451Z,81.85
2023-05-02T01:35:50.509Z,82.24
2023-05-02T01:38:19.472Z,82.21
2023-05-02T01:40:48.046Z,81.74
2023-05-02T01:43:17.375Z,81.13
2023-05-02T01:45:45.974Z,81.96
2023-05-02T01:48:15.323Z,82.58
2023-05-02T01:50:44.909Z,83.08
2023-05-02T01:53:14.052Z,83.74
2023-05-02T01:55:43.966Z,83.32
2023-05-02T01:58:12.578Z,83.10
2023-05-02T02:00:40.725Z,83.52
2023-05-02T02:03:09.697Z,83.69
2023-05-02T02:05:37.999Z,82.81
2023-05-02T02:08:05.400Z,83.25
2023-05-02T02:10:37.781Z,83.35
2023-05-02T02:13:11.535Z,82.59
2023-05-02T02:15:41.994Z,82.19
2023-05-02T02:18:13.980Z,82.24
2023-05-02T02:20:46.910Z,81.85
2023-05-02T02:23:15.849Z,80.36
2023-05-02T02:25:44.413Z,80.24
2023-05-02T02:28:11.571Z,79.01
2023-05-02T02:30:38.662Z,78.88
2023-05-02T02:33:05.617Z,78.91
2023-05-02T02:35:41.157Z,78.64
2023-05-02T02:38:40.769Z,79.46
2023-05-02T02:41:16.829Z,78.30
2023-05-02T02:44:13.470Z,77.47
2023-05-02T02:46:50.405Z,76.40
2023-05-02T02:49:29.508Z,75.94
2023-05-02T02:52:12.546Z,75.00
2023-05-02T02:54:57.665Z,74.95
2023-05-02T02:57:37.231Z,74.51
2023-05-02T03:00:27.659Z,74.35
2023-05-02T03:02:56.906Z,74.61
2023-05-02T03:05:24.561Z,75.02
2023-05-02T03:07:52.241Z,74.58
2023-05-02T03:10:19.391Z,74.54
2023-05-02T03:12:46.429Z,74.02
2023-05-02T03:15:32.271Z,73.02
2023-05-02T03:17:59.466Z,72.74
2023-05-02T03:20:26.389Z,72.08
2023-05-02T03:22:53.347Z,72.17
2023-05-02T03:25:20.370Z,71.61
2023-05-02T03:27:47.279Z,71.87
2023-05-02T03:30:14.252Z,71.60
2023-05-02T03:32:41.292Z,71.01
2023-05-02T03:35:08.750Z,70.88
2023-05-02T03:37:35.903Z,71.05
2023-05-02T03:40:03.359Z,71.93
2023-05-02T03:42:30.648Z,71.48
2023-05-02T03:44:57.742Z,70.98
2023-05-02T03:47:24.506Z,71.02
2023-05-02T03:49:53.342Z,70.05
2023-05-02T03:52:20.224Z,70.31
2023-05-02T03:54:47.237Z,70.54
2023-05-02T03:57:14.242Z,69.94
2023-05-02T03:59:43.208Z,70.00
2023-05-02T04:02:11.629Z,69.53
2023-05-02T04:04:38.894Z,69.06
2023-05-02T04:07:08.123Z,69.33
2023-05-02T04:09:35.088Z,70.19
2023-05-02T04:12:02.277Z,70.84
2023-05-02T04:14:29.268Z,70.25
2023-05-02T04:16:56.413Z,69.22
2023-05-02T04:19:23.397Z,68.53
2023-05-02T04:21:53.162Z,68.67
2023-05-02T04:24:20.217Z,68.73
2023-05-02T04:26:48.862Z,69.00
2023-05-02T04:29:15.890Z,68.14
2023-05-02T04:31:43.353Z,68.14
2023-05-02T04:34:13.243Z,68.37
2023-05-02T04:36:40.359Z,67.42
2023-05-02T04:39:08.031Z,67.04
2023-05-02T04:41:35.166Z,67.35
2023-05-02T04:44:02.225Z,67.76
2023-05-02T04:46:29.122Z,68.03
2023-05-02T04:48:56.250Z,68.31
2023-05-02T04:51:23.248Z,67.95
2023-05-02T04:53:50.738Z,67.71
2023-05-02T04:56:17.810Z,66.76
2023-05-02T04:58:44.732Z,67.47
2023-05-02T05:01:11.846Z,67.05
2023-05-02T05:03:38.990Z,66.97
2023-05-02T05:06:06.340Z,66.64
2023-05-02T05:08:34.095Z,66.39
2023-05-02T05:11:01.194Z,66.30
2023-05-02T05:13:28.746Z,66.20
2023-05-02T05:15:55.785Z,65.79
2023-05-02T05:18:25.226Z,65.80
2023-05-02T05:20:54.216Z,65.08
2023-05-02T05:23:21.360Z,65.29
2023-05-02T05:25:48.467Z,65.12
2023-05-02T05:28:15.392Z,65.12
2023-05-02T05:30:42.430Z,65.00
2023-05-02T05:33:09.617Z,64.78
2023-05-02T05:35:36.717Z,63.57
2023-05-02T05:38:03.576Z,64.05
2023-05-02T05:40:30.515Z,64.08
2023-05-02T05:42:57.675Z,64.58
2023-05-02T05:45:24.659Z,63.70
2023-05-02T05:47:51.843Z,62.90
2023-05-02T05:50:18.925Z,62.03
2023-05-02T05:52:45.818Z,61.54
2023-05-02T05:55:13.028Z,61.13
2023-05-02T05:57:40.023Z,60.20
2023-05-02T06:00:08.486Z,60.34
2023-05-02T06:02:35.621Z,60.31
2023-05-02T06:05:02.529Z,60.49
2023-05-02T06:07:29.562Z,59.79
2023-05-02T06:09:56.537Z,58.88
2023-05-02T06:12:23.447Z,58.44
2023-05-02T06:14:50.377Z,57.57
2023-05-02T06:17:17.090Z,56.30
2023-05-02T06:19:43.979Z,55.08
2023-05-02T06:22:14.029Z,54.83
2023-05-02T06:24:41.019Z,54.40
2023-05-02T06:27:07.866Z,53.58
2023-05-02T06:29:34.746Z,53.63
2023-05-02T06:32:01.667Z,53.38
2023-05-02T06:34:28.672Z,53.03
2023-05-02T06:36:58.998Z,52.23
2023-05-02T06:39:26.218Z,52.28
2023-05-02T06:41:58.586Z,52.72
2023-05-02T06:44:25.755Z,53.27
2023-05-02T06:46:52.653Z,52.15
2023-05-02T06:49:19.684Z,52.01
2023-05-02T06:51:46.598Z,51.90
2023-05-02T06:54:15.048Z,49.55
2023-05-02T06:56:42.729Z,47.65
2023-05-02T06:59:12.400Z,47.02
2023-05-02T07:01:39.399Z,46.83
2023-05-02T07:04:06.728Z,47.56
2023-05-02T07:06:33.783Z,48.66
2023-05-02T07:09:00.664Z,48.29
2023-05-02T07:11:28.459Z,48.61
2023-05-02T07:13:55.443Z,48.58
2023-05-02T07:16:22.528Z,48.32
2023-05-02T07:18:49.412Z,47.13
2023-05-02T07:21:16.345Z,47.53
2023-05-02T07:23:43.289Z,47.46
2023-05-02T07:26:10.213Z,46.90
2023-05-02T07:28:37.074Z,47.02
2023-05-02T07:31:04.744Z,45.43
2023-05-02T07:33:31.694Z,46.15
2023-05-02T07:35:58.797Z,46.99
2023-05-02T07:38:28.256Z,47.22
2023-05-02T07:40:59.064Z,46.27
2023-05-02T07:43:26.657Z,46.36
2023-05-02T07:45:53.488Z,47.09
2023-05-02T07:48:20.548Z,46.21
2023-05-02T07:50:47.432Z,44.57
2023-05-02T07:53:14.448Z,42.42
2023-05-02T07:55:41.310Z,42.07
2023-05-02T07:58:08.363Z,40.93
2023-05-02T08:00:35.553Z,40.12
2023-05-02T08:03:02.759Z,39.38
2023-05-02T08:05:29.947Z,37.53
2023-05-02T08:07:56.916Z,36.76
2023-05-02T08:10:24.566Z,36.26
2023-05-02T08:12:51.718Z,37.47
2023-05-02T08:15:18.845Z,37.29
2023-05-02T08:17:48.122Z,37.60
2023-05-02T08:20:15.116Z,32.49
2023-05-02T08:22:42.017Z,30.58
2023-05-02T08:25:09.345Z,30.03
2023-05-02T08:27:36.216Z,28.73
2023-05-02T08:30:03.721Z,27.92
2023-05-02T08:32:33.041Z,29.34
2023-05-02T08:34:59.910Z,29.83
2023-05-02T08:37:26.665Z,21.16
2023-05-02T08:39:53.582Z,20.73
2023-05-02T08:42:21.827Z,21.09
2023-05-02T08:44:52.779Z,24.22
2023-05-02T08:47:21.929Z,26.94
2023-05-02T08:49:50.146Z,29.13
2023-05-02T08:52:20.278Z,32.00
2023-05-02T08:54:47.912Z,35.11
2023-05-02T08:57:15.957Z,36.25
2023-05-02T08:59:43.497Z,37.69
2023-05-02T09:02:35.278Z,37.44
2023-05-02T09:05:07.852Z,34.97
2023-05-02T09:07:48.571Z,30.57
2023-05-02T09:10:16.127Z,24.46
2023-05-02T09:12:42.989Z,17.73
2023-05-02T09:15:11.820Z,14.92
2023-05-02T09:17:47.783Z,12.06
2023-05-02T09:20:16.296Z,15.23
2023-05-02T09:22:51.284Z,19.60
2023-05-02T09:25:19.659Z,25.63
2023-05-02T09:28:05.283Z,30.89
2023-05-02T09:30:33.271Z,33.18
2023-05-02T09:33:00.532Z,34.36
2023-05-02T09:35:27.650Z,35.31
2023-05-02T09:37:58.555Z,34.70
2023-05-02T09:40:27.667Z,34.57
2023-05-02T09:42:54.788Z,25.54
2023-05-02T09:45:26.963Z,15.71
2023-05-02T09:47:54.475Z,12.58
2023-05-02T09:50:41.557Z,12.29
2023-05-02T09:53:12.214Z,13.30
2023-05-02T09:55:39.447Z,16.59
2023-05-02T09:58:07.022Z,21.35
2023-05-02T10:00:46.749Z,25.41
2023-05-02T10:03:20.350Z,29.18
2023-05-02T10:05:48.075Z,31.13
2023-05-02T10:08:18.894Z,25.44
2023-05-02T10:10:59.090Z,15.71
2023-05-02T10:13:32.252Z,10.86
2023-05-02T10:16:08.670Z,15.48
2023-05-02T10:18:59.101Z,15.86
2023-05-02T10:21:30.113Z,11.70
2023-05-02T10:23:58.139Z,15.03
2023-05-02T10:26:25.842Z,22.24
2023-05-02T10:28:54.373Z,25.85
2023-05-02T10:31:25.308Z,27.10
2023-05-02T10:33:52.677Z,24.94
2023-05-02T10:36:23.939Z,17.62
2023-05-02T10:38:51.466Z,19.10
2023-05-02T10:41:26.858Z,21.80
2023-05-02T10:43:54.532Z,26.80
2023-05-02T10:46:33.322Z,30.84
2023-05-02T10:49:05.151Z,32.65
2023-05-02T10:51:33.435Z,33.70
2023-05-02T10:54:22.445Z,34.90
2023-05-02T10:57:16.075Z,34.25
2023-05-02T10:59:45.349Z,34.84
2023-05-02T11:02:25.558Z,34.15
2023-05-02T11:05:01.283Z,34.73
2023-05-02T11:07:29.592Z,34.75
2023-05-02T11:10:18.082Z,34.32
2023-05-02T11:12:55.452Z,31.80
2023-05-02T11:15:28.386Z,29.67
2023-05-02T11:18:14.320Z,27.94
2023-05-02T11:20:42.946Z,24.75
2023-05-02T11:23:16.372Z,23.37
2023-05-02T11:25:45.633Z,19.41
2023-05-02T11:28:39.553Z,20.09
2023-05-02T11:31:07.948Z,18.33
2023-05-02T11:33:34.952Z,20.28
2023-05-02T11:36:02.214Z,26.67
2023-05-02T11:38:37.892Z,31.44
2023-05-02T11:41:08.068Z,32.21
2023-05-02T11:43:35.428Z,31.07
2023-05-02T11:46:03.214Z,20.21
2023-05-02T11:48:31.068Z,18.67
2023-05-02T11:51:03.773Z,17.44
2023-05-02T11:53:33.948Z,15.96
2023-05-02T11:56:05.144Z,17.49
2023-05-02T11:58:33.856Z,16.99
2023-05-02T12:01:17.637Z,17.67
2023-05-02T12:03:45.440Z,20.27
2023-05-02T12:06:19.677Z,22.52
2023-05-02T12:08:47.018Z,24.51
2023-05-02T12:11:16.359Z,26.11
2023-05-02T12:13:48.401Z,26.46
2023-05-02T12:16:16.740Z,26.52
2023-05-02T12:18:44.359Z,28.53
2023-05-02T12:21:11.736Z,29.22
2023-05-02T12:23:40.429Z,31.17
2023-05-02T12:26:22.430Z,30.68
2023-05-02T12:28:58.549Z,30.84
2023-05-02T12:31:27.572Z,31.56
2023-05-02T12:33:58.057Z,31.49
2023-05-02T12:36:25.297Z,32.29
2023-05-02T12:38:55.112Z,32.58
2023-05-02T12:41:51.840Z,33.29
2023-05-02T12:44:37.294Z,34.32
2023-05-02T12:47:04.421Z,34.22
2023-05-02T12:49:48.665Z,35.26
2023-05-02T12:52:16.237Z,33.86
2023-05-02T12:54:44.495Z,33.66
2023-05-02T12:57:11.874Z,33.80
2023-05-02T12:59:41.040Z,34.81
2023-05-02T13:02:08.103Z,34.29
2023-05-02T13:04:40.447Z,34.42
2023-05-02T13:07:08.197Z,33.06
2023-05-02T13:09:35.174Z,33.98
2023-05-02T13:12:03.898Z,31.90
2023-05-02T13:14:31.081Z,31.79
2023-05-02T13:17:01.113Z,32.85
2023-05-02T13:19:31.506Z,32.51
2023-05-02T13:21:58.553Z,32.66
2023-05-02T13:24:26.008Z,33.62
2023-05-02T13:26:52.989Z,33.55
2023-05-02T13:29:19.991Z,35.27
2023-05-02T13:31:47.104Z,37.45
2023-05-02T13:34:14.040Z,37.74
2023-05-02T13:36:46.369Z,36.56
2023-05-02T13:39:14.218Z,33.82
2023-05-02T13:41:41.791Z,35.34
2023-05-02T13:44:09.631Z,35.85
2023-05-02T13:46:38.155Z,35.71
2023-05-02T13:49:05.755Z,36.73
2023-05-02T13:51:33.043Z,38.51
2023-05-02T13:54:00.545Z,37.58
2023-05-02T13:56:27.838Z,37.31
2023-05-02T13:58:54.989Z,37.20
2023-05-02T14:01:22.187Z,36.52
2023-05-02T14:03:49.204Z,36.53
2023-05-02T14:06:16.739Z,34.47
2023-05-02T14:08:46.898Z,34.24
2023-05-02T14:11:15.018Z,35.23
2023-05-02T14:13:41.815Z,32.83
2023-05-02T14:16:08.888Z,34.40
2023-05-02T14:18:36.076Z,33.46
2023-05-02T14:21:04.505Z,32.97
2023-05-02T14:23:31.421Z,32.94
2023-05-02T14:25:58.522Z,31.67
2023-05-02T14:28:27.366Z,32.85
2023-05-02T14:30:54.299Z,33.31
2023-05-02T14:33:21.568Z,33.21
2023-05-02T14:35:49.598Z,33.62
2023-05-02T14:38:16.600Z,33.40
2023-05-02T14:40:43.641Z,33.36
2023-05-02T14:43:13.537Z,32.42
2023-05-02T14:45:40.706Z,32.12
2023-05-02T14:48:08.812Z,31.00
2023-05-02T14:50:37.568Z,32.05
2023-05-02T14:53:04.586Z,33.42
2023-05-02T14:55:36.850Z,33.20
2023-05-02T14:58:03.709Z,35.58
2023-05-02T15:00:30.737Z,35.52
2023-05-02T15:02:57.779Z,34.68
2023-05-02T15:05:24.819Z,32.06
2023-05-02T15:07:51.945Z,32.67
2023-05-02T15:10:18.795Z,33.50
2023-05-02T15:12:47.157Z,34.26
2023-05-02T15:15:15.350Z,35.37
2023-05-02T15:17:42.249Z,34.71
2023-05-02T15:20:09.706Z,31.98
2023-05-02T15:22:36.647Z,31.45
2023-05-02T15:25:05.332Z,33.05
2023-05-02T15:27:35.086Z,32.51
2023-05-02T15:30:03.742Z,34.14
2023-05-02T15:32:30.936Z,33.04
2023-05-02T15:34:57.872Z,32.29
2023-05-02T15:37:24.778Z,32.45
2023-05-02T15:39:52.092Z,32.82
2023-05-02T15:42:19.109Z,31.38
2023-05-02T15:44:46.061Z,31.45
2023-05-02T15:47:13.376Z,32.47
2023-05-02T15:49:40.947Z,33.52
2023-05-02T15:52:07.748Z,32.59
2023-05-02T15:54:34.645Z,33.03
2023-05-02T15:57:02.775Z,31.80
2023-05-02T15:59:29.685Z,32.90
2023-05-02T16:01:56.664Z,33.58
2023-05-02T16:04:25.443Z,34.25
2023-05-02T16:06:52.644Z,33.76
2023-05-02T16:09:19.723Z,34.87
2023-05-02T16:11:49.527Z,35.25
2023-05-02T16:14:16.508Z,36.72
2023-05-02T16:16:43.483Z,35.77
2023-05-02T16:19:13.961Z,36.51
2023-05-02T16:21:42.496Z,36.29
2023-05-02T16:24:13.210Z,36.34
2023-05-02T16:26:40.335Z,37.14
2023-05-02T16:29:07.326Z,37.25
2023-05-02T16:31:35.404Z,37.29
2023-05-02T16:34:03.294Z,37.85
2023-05-02T16:36:31.926Z,37.31
2023-05-02T16:39:01.521Z,38.57
2023-05-02T16:41:28.541Z,39.27
2023-05-02T16:43:55.532Z,39.39
2023-05-02T16:46:23.211Z,38.30
2023-05-02T16:48:50.276Z,37.82
2023-05-02T16:51:17.358Z,37.84
2023-05-02T16:53:46.592Z,37.90
2023-05-02T16:56:13.898Z,38.83
2023-05-02T16:58:41.123Z,38.14
2023-05-02T17:01:08.796Z,39.83
2023-05-02T17:03:35.841Z,38.88
2023-05-02T17:06:03.129Z,40.16
2023-05-02T17:08:31.127Z,39.71
2023-05-02T17:10:58.157Z,40.77
2023-05-02T17:13:25.189Z,42.32
2023-05-02T17:15:54.012Z,43.19
2023-05-02T17:18:22.135Z,42.71
2023-05-02T17:20:49.530Z,43.60
2023-05-02T17:23:16.574Z,42.96
2023-05-02T17:25:43.572Z,41.87
2023-05-02T17:28:11.356Z,42.03
2023-05-02T17:30:38.743Z,42.01
2023-05-02T17:33:08.790Z,42.27
2023-05-02T17:35:35.671Z,43.32
2023-05-02T17:38:02.646Z,43.27
2023-05-02T17:40:30.060Z,44.23
2023-05-02T17:42:59.000Z,44.09
2023-05-02T17:45:29.314Z,45.11
2023-05-02T17:47:56.776Z,44.56
2023-05-02T17:50:24.127Z,44.76
2023-05-02T17:52:53.426Z,45.27
2023-05-02T17:55:20.399Z,45.51
2023-05-02T17:57:47.743Z,46.78
2023-05-02T18:00:15.210Z,46.23
2023-05-02T18:02:42.457Z,46.23
2023-05-02T18:05:09.937Z,46.48
2023-05-02T18:07:37.050Z,46.60
2023-05-02T18:10:05.412Z,47.14
2023-05-02T18:12:33.008Z,47.71
2023-05-02T18:15:00.846Z,48.39
2023-05-02T18:17:28.191Z,47.90
2023-05-02T18:19:55.406Z,48.49
2023-05-02T18:22:22.600Z,49.91
2023-05-02T18:24:50.184Z,51.29
2023-05-02T18:27:18.028Z,51.86
2023-05-02T18:29:45.120Z,53.47
2023-05-02T18:32:13.144Z,53.85
2023-05-02T18:34:40.442Z,54.42
2023-05-02T18:37:07.389Z,55.08
2023-05-02T18:39:35.073Z,56.09
2023-05-02T18:42:05.857Z,57.29
2023-05-02T18:44:32.922Z,57.40
2023-05-02T18:46:59.911Z,57.90
2023-05-02T18:49:27.357Z,57.87
2023-05-02T18:51:54.944Z,58.84
2023-05-02T18:54:23.580Z,59.86
2023-05-02T18:56:50.717Z,60.06
2023-05-02T18:59:19.147Z,60.86
2023-05-02T19:01:48.678Z,60.65
2023-05-02T19:04:15.956Z,60.68
2023-05-02T19:06:43.115Z,60.40
2023-05-02T19:09:10.199Z,60.71
2023-05-02T19:11:37.235Z,61.39
2023-05-02T19:14:04.430Z,61.32
2023-05-02T19:16:31.821Z,62.01
2023-05-02T19:18:58.972Z,61.94
2023-05-02T19:21:26.123Z,62.16
2023-05-02T19:23:53.217Z,63.38
2023-05-02T19:26:20.521Z,63.48
2023-05-02T19:28:47.382Z,63.36
2023-05-02T19:31:17.442Z,63.86
2023-05-02T19:33:51.528Z,64.64
2023-05-02T19:36:23.600Z,65.07
2023-05-02T19:38:55.968Z,65.76
2023-05-02T19:41:22.944Z,65.63
2023-05-02T19:43:50.464Z,65.40
2023-05-02T19:46:18.415Z,65.51
2023-05-02T19:48:46.135Z,66.46
2023-05-02T19:51:13.505Z,66.81
2023-05-02T19:53:45.772Z,66.98
2023-05-02T19:56:12.724Z,67.01
2023-05-02T19:58:39.784Z,66.88
2023-05-02T20:01:06.743Z,67.24
2023-05-02T20:03:34.990Z,66.51
2023-05-02T20:06:02.595Z,67.11
2023-05-02T20:08:31.638Z,67.12
2023-05-02T20:11:01.246Z,67.70
2023-05-02T20:13:28.333Z,67.38
2023-05-02T20:15:55.387Z,68.11
2023-05-02T20:18:22.379Z,69.12
2023-05-02T20:20:49.286Z,68.54
2023-05-02T20:23:16.510Z,68.85
2023-05-02T20:25:44.164Z,69.14
2023-05-02T20:28:11.291Z,69.54
2023-05-02T20:30:40.010Z,69.45
2023-05-02T20:33:14.958Z,69.75
2023-05-02T20:35:43.948Z,70.26
2023-05-02T20:38:13.772Z,71.03
2023-05-02T20:40:43.020Z,71.88
2023-05-02T20:43:10.250Z,71.54
2023-05-02T20:45:39.151Z,72.61
2023-05-02T20:48:06.433Z,72.24
2023-05-02T20:50:35.242Z,72.58
2023-05-02T20:53:02.253Z,71.61
2023-05-02T20:55:29.380Z,72.63
2023-05-02T20:57:56.869Z,72.41
2023-05-02T21:00:23.901Z,72.74
2023-05-02T21:02:51.741Z,74.14
2023-05-02T21:05:18.785Z,73.94
2023-05-02T21:07:46.058Z,73.92
2023-05-02T21:10:13.160Z,74.70
2023-05-02T21:12:40.124Z,75.19
2023-05-02T21:15:07.935Z,75.59
2023-05-02T21:17:35.100Z,75.69
2023-05-02T21:20:02.456Z,76.14
2023-05-02T21:22:29.943Z,74.71
2023-05-02T21:24:56.937Z,75.36
2023-05-02T21:27:24.117Z,76.01
2023-05-02T21:29:53.535Z,77.04
2023-05-02T21:32:21.115Z,75.53
2023-05-02T21:34:48.454Z,76.02
2023-05-02T21:37:15.630Z,74.98
2023-05-02T21:39:42.499Z,76.06
2023-05-02T21:42:09.459Z,74.36
2023-05-02T21:44:36.685Z,75.73
2023-05-02T21:47:06.238Z,76.82
2023-05-02T21:49:33.150Z,77.21
2023-05-02T21:52:06.003Z,77.40
2023-05-02T21:54:33.357Z,76.69
2023-05-02T21:57:00.910Z,76.89
2023-05-02T21:59:27.979Z,76.18
2023-05-02T22:01:54.909Z,75.73
2023-05-02T22:04:22.357Z,75.89
2023-05-02T22:06:53.104Z,77.11
2023-05-02T22:09:20.982Z,76.71
2023-05-02T22:11:47.992Z,77.31
2023-05-02T22:14:14.931Z,77.50
2023-05-02T22:16:41.784Z,76.93
2023-05-02T22:19:11.769Z,77.63
2023-05-02T22:21:38.735Z,77.07
2023-05-02T22:24:05.978Z,77.77
2023-05-02T22:26:32.923Z,78.60
2023-05-02T22:28:59.883Z,77.29
2023-05-02T22:31:27.505Z,77.45
2023-05-02T22:33:54.543Z,77.94
2023-05-02T22:36:21.487Z,78.92
2023-05-02T22:38:48.382Z,78.19
2023-05-02T22:41:15.362Z,77.18
2023-05-02T22:43:42.403Z,78.76
2023-05-02T22:46:10.456Z,79.13
2023-05-02T22:48:37.685Z,78.56
2023-05-02T22:51:04.888Z,79.74
2023-05-02T22:53:31.829Z,78.24
2023-05-02T22:55:58.939Z,80.23
2023-05-02T22:58:26.159Z,81.04
2023-05-02T23:00:56.316Z,81.36
2023-05-02T23:03:23.277Z,82.05
2023-05-02T23:05:50.368Z,81.13
2023-05-02T23:08:17.202Z,81.60
2023-05-02T23:10:44.534Z,81.26
2023-05-02T23:13:11.439Z,80.78
2023-05-02T23:15:38.519Z,81.17
2023-05-02T23:18:06.246Z,80.50
2023-05-02T23:20:36.121Z,80.67
2023-05-02T23:23:04.075Z,79.63
2023-05-02T23:25:31.042Z,81.08
2023-05-02T23:27:57.954Z,81.99
2023-05-02T23:30:24.918Z,81.76
2023-05-02T23:32:51.883Z,81.82
2023-05-02T23:35:19.363Z,82.34
2023-05-02T23:37:46.520Z,83.14
2023-05-02T23:40:13.677Z,82.35
2023-05-02T23:42:41.115Z,82.58
2023-05-02T23:45:09.334Z,83.04
2023-05-02T23:47:38.256Z,82.52
2023-05-02T23:50:06.043Z,83.38
2023-05-02T23:52:33.670Z,83.18
2023-05-02T23:55:00.786Z,82.99
2023-05-02T23:57:30.528Z,82.66
2023-05-02T23:59:57.609Z,82.45
